Time,TemperatureF,DewpointF,PressureIn,WindDirection,WindDirectionDegrees,WindSpeedMPH,WindSpeedGustMPH,Humidity,HourlyPrecipIn,Conditions,Clouds,dailyrainin,SoftwareType,DateUTC
2013-11-09 00:12:00,35.0,29.0,-100.00,WNW,290,14.0,18.0,79,-99.99,,,-99.99,,2013-11-09 07:12:00,
2013-11-09 00:53:00,33.0,27.0,-100.00,WNW,300,12.0,16.0,78,-99.99,,,-99.99,,2013-11-09 07:53:00,
2013-11-09 01:12:00,33.0,27.0,-100.00,WNW,300,13.0,16.0,78,-99.99,,,-99.99,,2013-11-09 08:12:00,
2013-11-09 01:52:00,34.0,28.0,-100.00,WNW,300,17.0,24.0,78,-99.99,,,-99.99,,2013-11-09 08:52:00,
2013-11-09 02:11:00,34.0,28.0,-100.00,WNW,295,14.0,21.0,78,-99.99,,,-99.99,,2013-11-09 09:11:00,
2013-11-09 02:53:00,33.0,26.0,-100.00,WNW,300,17.0,26.0,73,-99.99,,,-99.99,,2013-11-09 09:53:00,
2013-11-09 03:12:00,33.0,26.0,-100.00,WNW,300,16.0,27.0,74,-99.99,,,-99.99,,2013-11-09 10:12:00,
2013-11-09 03:52:00,33.0,24.0,-100.00,WNW,295,15.0,22.0,69,-99.99,,,-99.99,,2013-11-09 10:52:00,
2013-11-09 04:11:00,33.0,24.0,-100.00,WNW,290,15.0,21.0,72,-99.99,,,-99.99,,2013-11-09 11:11:00,
2013-11-09 04:52:00,32.0,22.0,-100.00,WNW,300,22.0,34.0,66,-99.99,,,-99.99,,2013-11-09 11:52:00,
2013-11-09 05:12:00,32.0,22.0,-100.00,WNW,295,19.0,29.0,67,-99.99,,,-99.99,,2013-11-09 12:12:00,
2013-11-09 05:52:00,31.0,20.0,-100.00,NW,305,22.0,29.0,61,-99.99,,,-99.99,,2013-11-09 12:52:00,
2013-11-09 06:11:00,31.0,20.0,-100.00,NW,305,17.0,26.0,62,-99.99,,,-99.99,,2013-11-09 13:11:00,
2013-11-09 06:52:00,31.0,21.0,-100.00,WNW,285,20.0,27.0,67,-99.99,,,-99.99,,2013-11-09 13:52:00,
2013-11-09 07:11:00,30.0,20.0,-100.00,WNW,295,23.0,29.0,65,-99.99,,,-99.99,,2013-11-09 14:11:00,
2013-11-09 07:52:00,30.0,18.0,-100.00,WNW,290,21.0,27.0,60,-99.99,,,-99.99,,2013-11-09 14:52:00,
2013-11-09 08:11:00,30.0,18.0,-100.00,WNW,300,17.0,27.0,60,-99.99,,,-99.99,,2013-11-09 15:11:00,
2013-11-09 08:54:00,30.0,18.0,-100.00,WNW,290,15.0,21.0,61,-99.99,,,-99.99,,2013-11-09 15:54:00,
2013-11-09 09:12:00,30.0,18.0,-100.00,WNW,290,16.0,21.0,61,-99.99,,,-99.99,,2013-11-09 16:12:00,
2013-11-09 09:53:00,30.0,18.0,-100.00,WNW,290,19.0,22.0,60,-99.99,,,-99.99,,2013-11-09 16:53:00,
2013-11-09 10:13:00,30.0,18.0,-100.00,WNW,300,17.0,23.0,60,-99.99,,,-99.99,,2013-11-09 17:13:00,
2013-11-09 10:52:00,31.0,17.0,-100.00,NW,305,22.0,27.0,55,-99.99,,,-99.99,,2013-11-09 17:52:00,
2013-11-09 11:12:00,31.0,17.0,-100.00,NW,305,24.0,29.0,55,-99.99,,,-99.99,,2013-11-09 18:12:00,
2013-11-09 11:52:00,32.0,17.0,-100.00,NW,310,19.0,24.0,54,-99.99,,,-99.99,,2013-11-09 18:52:00,
2013-11-09 12:11:00,32.0,17.0,-100.00,WNW,300,18.0,24.0,53,-99.99,,,-99.99,,2013-11-09 19:11:00,
2013-11-09 12:52:00,32.0,18.0,-100.00,WNW,295,12.0,18.0,55,-99.99,,,-99.99,,2013-11-09 19:52:00,
2013-11-09 13:12:00,33.0,18.0,-100.00,WNW,295,15.0,20.0,53,-99.99,,,-99.99,,2013-11-09 20:12:00,
2013-11-09 13:52:00,34.0,17.0,-100.00,WNW,290,13.0,18.0,50,-99.99,,,-99.99,,2013-11-09 20:52:00,
2013-11-09 14:11:00,34.0,17.0,-100.00,NW,310,13.0,20.0,50,-99.99,,,-99.99,,2013-11-09 21:11:00,
2013-11-09 14:54:00,35.0,17.0,-100.00,NW,310,14.0,17.0,47,-99.99,,,-99.99,,2013-11-09 21:54:00,
2013-11-09 15:13:00,35.0,17.0,-100.00,WNW,290,14.0,17.0,47,-99.99,,,-99.99,,2013-11-09 22:13:00,
2013-11-09 15:54:00,34.0,16.0,-100.00,WNW,290,8.0,12.0,47,-99.99,,,-99.99,,2013-11-09 22:54:00,
2013-11-09 16:13:00,34.0,16.0,-100.00,West,270,7.0,11.0,48,-99.99,,,-99.99,,2013-11-09 23:13:00,
2013-11-09 16:53:00,29.0,15.0,-100.00,West,270,6.0,7.0,53,-99.99,,,-99.99,,2013-11-09 23:53:00,
2013-11-09 17:12:00,29.0,15.0,-100.00,West,275,4.0,6.0,55,-99.99,,,-99.99,,2013-11-10 00:12:00,
2013-11-09 17:52:00,27.0,16.0,-100.00,WSW,240,4.0,6.0,61,-99.99,,,-99.99,,2013-11-10 00:52:00,
2013-11-09 18:12:00,26.0,15.0,-100.00,SW,230,6.0,6.0,62,-99.99,,,-99.99,,2013-11-10 01:12:00,
2013-11-09 18:52:00,26.0,15.0,-100.00,WSW,250,3.0,4.0,64,-99.99,,,-99.99,,2013-11-10 01:52:00,
2013-11-09 19:12:00,23.0,13.0,-100.00,SSW,210,1.0,3.0,65,-99.99,,,-99.99,,2013-11-10 02:12:00,
2013-11-09 19:52:00,20.0,13.0,-100.00,SW,220,1.0,2.0,72,-99.99,,,-99.99,,2013-11-10 02:52:00,
2013-11-09 20:12:00,21.0,14.0,-100.00,South,170,1.0,2.0,74,-99.99,,,-99.99,,2013-11-10 03:12:00,
2013-11-09 20:54:00,22.0,16.0,-100.00,SW,225,1.0,2.0,76,-99.99,,,-99.99,,2013-11-10 03:54:00,
2013-11-09 21:02:00,-999.0,-99.9,-100.00,SW,215,4.0,6.0,-999,-99.99,,,-99.99,,2013-11-10 04:02:00,
2013-11-09 21:14:00,22.0,17.0,-100.00,SW,215,4.0,6.0,77,-99.99,,,-99.99,,2013-11-10 04:14:00,
2013-11-09 21:52:00,24.0,18.0,-100.00,SW,225,7.0,8.0,77,-99.99,,,-99.99,,2013-11-10 04:52:00,
2013-11-09 22:13:00,25.0,19.0,-100.00,WSW,250,6.0,8.0,76,-99.99,,,-99.99,,2013-11-10 05:13:00,
2013-11-09 22:54:00,25.0,18.0,-100.00,SW,230,4.0,5.0,73,-99.99,,,-99.99,,2013-11-10 05:54:00,
2013-11-09 23:13:00,25.0,18.0,-100.00,WSW,240,3.0,5.0,73,-99.99,,,-99.99,,2013-11-10 06:13:00,
2013-11-09 23:52:00,26.0,18.0,-100.00,SW,215,3.0,4.0,73,-99.99,,,-99.99,,2013-11-10 06:52:00,